createdAt,value
2017-08-06T00:01:00.553Z,20.92
2017-08-06T00:03:28.209Z,21.67
2017-08-06T00:05:56.225Z,21.87
2017-08-06T00:08:23.769Z,22.40
2017-08-06T00:10:55.298Z,23.27
2017-08-06T00:13:23.245Z,21.92
2017-08-06T00:15:51.556Z,22.92
2017-08-06T00:18:19.106Z,23.83
2017-08-06T00:20:46.752Z,22.65
2017-08-06T00:23:14.291Z,22.50
2017-08-06T00:25:45.757Z,23.12
2017-08-06T00:28:14.067Z,22.08
2017-08-06T00:30:41.621Z,23.98
2017-08-06T00:33:09.201Z,24.55
2017-08-06T00:35:36.856Z,25.17
2017-08-06T00:38:04.414Z,26.00
2017-08-06T00:40:32.005Z,24.83
2017-08-06T00:42:59.558Z,26.00
2017-08-06T00:45:27.144Z,25.08
2017-08-06T00:47:54.730Z,25.65
2017-08-06T00:50:22.498Z,26.98
2017-08-06T00:52:50.045Z,26.98
2017-08-06T00:55:17.713Z,28.52
2017-08-06T00:57:45.269Z,29.90
2017-08-06T01:00:12.813Z,27.20
2017-08-06T01:02:41.537Z,30.50
2017-08-06T01:05:09.072Z,31.20
2017-08-06T01:07:37.387Z,30.58
2017-08-06T01:10:05.255Z,31.62
2017-08-06T01:12:32.801Z,33.65
2017-08-06T01:15:00.349Z,33.50
2017-08-06T01:17:27.934Z,32.35
2017-08-06T01:19:55.468Z,34.53
2017-08-06T01:22:23.487Z,34.40
2017-08-06T01:24:51.029Z,34.90
2017-08-06T01:27:18.574Z,34.60
2017-08-06T01:29:46.286Z,33.75
2017-08-06T01:32:13.831Z,35.17
2017-08-06T01:34:41.376Z,36.65
2017-08-06T01:37:08.965Z,35.88
2017-08-06T01:39:36.508Z,38.38
2017-08-06T01:42:04.118Z,38.10
2017-08-06T01:44:31.680Z,37.78
2017-08-06T01:46:59.217Z,36.97
2017-08-06T01:49:27.466Z,36.95
2017-08-06T01:51:55.030Z,36.38
2017-08-06T01:54:22.578Z,35.10
2017-08-06T01:56:50.161Z,35.30
2017-08-06T01:59:17.705Z,36.10
2017-08-06T02:01:45.573Z,36.70
2017-08-06T02:04:13.109Z,34.20
2017-08-06T02:06:40.661Z,34.80
2017-08-06T02:09:08.389Z,33.45
2017-08-06T02:11:37.101Z,34.38
2017-08-06T02:14:04.681Z,34.90
2017-08-06T02:16:32.225Z,33.13
2017-08-06T02:19:00.080Z,34.92
2017-08-06T02:21:27.629Z,34.03
2017-08-06T02:23:55.178Z,33.13
2017-08-06T02:26:23.269Z,33.58
2017-08-06T02:28:50.818Z,33.58
2017-08-06T02:31:18.368Z,33.92
2017-08-06T02:33:46.405Z,32.60
2017-08-06T02:36:14.008Z,33.15
2017-08-06T02:38:41.558Z,32.40
2017-08-06T02:41:09.145Z,33.17
2017-08-06T02:43:37.177Z,32.72
2017-08-06T02:46:04.725Z,30.83
2017-08-06T02:48:32.270Z,33.10
2017-08-06T02:50:59.915Z,32.10
2017-08-06T02:53:27.463Z,31.10
2017-08-06T02:55:55.052Z,31.02
2017-08-06T02:58:22.606Z,30.92
2017-08-06T03:00:50.710Z,30.62
2017-08-06T03:03:18.249Z,31.00
2017-08-06T03:05:45.801Z,29.95
2017-08-06T03:08:13.382Z,31.33
2017-08-06T03:10:41.211Z,31.30
2017-08-06T03:13:08.820Z,29.33
2017-08-06T03:15:36.365Z,31.10
2017-08-06T03:18:03.909Z,30.25
2017-08-06T03:20:31.998Z,30.37
2017-08-06T03:22:59.546Z,29.35
2017-08-06T03:25:27.090Z,29.80
2017-08-06T03:27:54.677Z,29.48
2017-08-06T03:30:22.227Z,29.50
2017-08-06T03:32:50.106Z,30.83
2017-08-06T03:35:17.657Z,29.67
2017-08-06T03:37:45.198Z,29.40
2017-08-06T03:40:13.093Z,30.00
2017-08-06T03:42:40.687Z,29.75
2017-08-06T03:45:08.234Z,29.73
2017-08-06T03:47:35.826Z,29.83
2017-08-06T03:50:03.368Z,30.02
2017-08-06T03:52:31.781Z,29.65
2017-08-06T03:54:59.990Z,30.00
2017-08-06T03:57:27.547Z,28.67
2017-08-06T03:59:55.091Z,30.62
2017-08-06T04:02:22.677Z,30.20
2017-08-06T04:04:50.232Z,31.45
2017-08-06T04:07:18.297Z,30.45
2017-08-06T04:09:45.846Z,28.85
2017-08-06T04:12:13.782Z,30.23
2017-08-06T04:14:41.429Z,30.85
2017-08-06T04:17:09.036Z,29.55
2017-08-06T04:19:36.581Z,30.20
2017-08-06T04:22:04.165Z,31.48
2017-08-06T04:24:31.712Z,30.48
2017-08-06T04:26:59.306Z,30.17
2017-08-06T04:29:26.854Z,30.42
2017-08-06T04:31:54.528Z,28.87
2017-08-06T04:34:22.117Z,29.80
2017-08-06T04:36:50.497Z,30.25
2017-08-06T04:39:18.044Z,28.50
2017-08-06T04:41:46.350Z,29.35
2017-08-06T04:44:18.767Z,29.42
2017-08-06T04:46:46.350Z,29.80
2017-08-06T04:49:13.895Z,30.05
2017-08-06T04:51:46.875Z,28.65
2017-08-06T04:54:14.425Z,29.02
2017-08-06T04:56:41.972Z,28.10
2017-08-06T04:59:09.721Z,26.37
2017-08-06T05:01:37.679Z,26.95
2017-08-06T05:04:05.234Z,28.77
2017-08-06T05:06:32.782Z,28.98
2017-08-06T05:09:00.450Z,29.67
2017-08-06T05:11:30.121Z,28.15
2017-08-06T05:13:57.666Z,29.65
2017-08-06T05:16:25.234Z,30.70
2017-08-06T05:18:52.849Z,29.58
2017-08-06T05:21:20.440Z,29.92
2017-08-06T05:23:48.004Z,29.73
2017-08-06T05:26:15.904Z,31.75
2017-08-06T05:28:43.501Z,29.67
2017-08-06T05:31:11.060Z,33.15
2017-08-06T05:33:43.737Z,32.20
2017-08-06T05:36:11.294Z,29.83
2017-08-06T05:38:38.901Z,30.62
2017-08-06T05:41:06.557Z,29.02
2017-08-06T05:43:34.122Z,26.92
2017-08-06T05:46:02.003Z,25.60
2017-08-06T05:48:29.810Z,26.23
2017-08-06T05:50:57.449Z,23.58
2017-08-06T05:53:25.003Z,23.08
2017-08-06T05:55:52.613Z,23.20
2017-08-06T05:58:20.238Z,23.15
2017-08-06T06:00:48.662Z,22.95
2017-08-06T06:03:16.218Z,24.65
2017-08-06T06:05:43.967Z,20.75
2017-08-06T06:08:11.513Z,20.42
2017-08-06T06:10:40.469Z,19.83
2017-08-06T06:13:08.026Z,19.10
2017-08-06T06:15:35.808Z,19.85
2017-08-06T06:27:06.679Z,20.83
2017-08-06T06:29:34.246Z,20.95
2017-08-06T06:32:01.807Z,21.85
2017-08-06T06:34:29.405Z,20.85
2017-08-06T06:36:58.025Z,22.90
2017-08-06T06:39:25.581Z,23.20
2017-08-06T06:41:53.589Z,24.30
2017-08-06T06:44:21.134Z,24.17
2017-08-06T06:46:48.694Z,25.40
2017-08-06T06:49:19.346Z,25.70
2017-08-06T06:51:46.900Z,25.00
2017-08-06T06:54:14.442Z,23.80
2017-08-06T06:56:42.021Z,23.35
2017-08-06T06:59:09.665Z,24.90
2017-08-06T07:01:37.287Z,23.40
2017-08-06T07:04:04.852Z,22.98
2017-08-06T07:06:32.988Z,23.10
2017-08-06T07:09:00.535Z,21.67
2017-08-06T07:11:30.718Z,25.35
2017-08-06T07:13:58.351Z,26.27
2017-08-06T07:16:26.676Z,23.73
2017-08-06T07:18:54.260Z,24.98
2017-08-06T07:21:21.822Z,24.02
2017-08-06T07:23:49.481Z,23.02
2017-08-06T07:26:17.058Z,24.70
2017-08-06T07:28:44.658Z,23.65
2017-08-06T07:31:12.210Z,21.98
2017-08-06T07:33:39.810Z,20.90
2017-08-06T07:36:07.355Z,18.87
2017-08-06T07:38:37.711Z,17.83
2017-08-06T07:41:05.285Z,16.80
2017-08-06T07:43:33.337Z,16.95
2017-08-06T07:46:01.681Z,17.52
2017-08-06T07:48:29.242Z,17.17
2017-08-06T07:50:56.841Z,16.37
2017-08-06T07:53:24.395Z,17.80
2017-08-06T07:55:52.687Z,17.30
2017-08-06T07:58:20.237Z,15.50
2017-08-06T08:00:47.803Z,16.50
2017-08-06T08:03:15.485Z,15.77
2017-08-06T08:05:43.820Z,15.55
2017-08-06T08:08:11.810Z,15.85
2017-08-06T08:10:39.362Z,15.40
2017-08-06T08:13:07.199Z,13.98
2017-08-06T08:15:37.682Z,13.25
2017-08-06T08:18:05.271Z,13.85
2017-08-06T08:20:33.586Z,12.75
2017-08-06T08:23:03.753Z,13.85
2017-08-06T08:25:32.083Z,12.57
2017-08-06T08:27:59.673Z,11.15
2017-08-06T08:30:27.221Z,9.30
2017-08-06T08:32:55.195Z,7.03
2017-08-06T08:35:22.733Z,7.35
2017-08-06T08:37:50.630Z,8.60
2017-08-06T08:40:18.381Z,9.57
2017-08-06T08:42:46.029Z,8.23
2017-08-06T08:45:13.908Z,5.78
2017-08-06T08:47:41.441Z,6.40
2017-08-06T08:50:08.993Z,7.35
2017-08-06T08:52:36.642Z,8.50
2017-08-06T08:55:04.512Z,7.53
2017-08-06T08:57:32.072Z,7.45
2017-08-06T08:59:59.614Z,7.12
2017-08-06T09:02:27.971Z,6.68
2017-08-06T09:04:55.566Z,6.75
2017-08-06T09:07:23.876Z,6.12
2017-08-06T09:09:51.534Z,6.57
2017-08-06T09:12:19.119Z,7.05
2017-08-06T09:14:49.786Z,6.93
2017-08-06T09:17:19.565Z,5.97
2017-08-06T09:19:47.109Z,7.05
2017-08-06T09:22:14.805Z,6.40
2017-08-06T09:24:42.353Z,6.47
2017-08-06T09:27:09.905Z,6.93
2017-08-06T09:29:37.645Z,6.45
2017-08-06T09:32:05.195Z,6.32
2017-08-06T09:34:32.861Z,7.37
2017-08-06T09:37:00.411Z,6.97
2017-08-06T09:39:28.026Z,7.25
2017-08-06T09:41:55.602Z,6.70
2017-08-06T09:44:23.923Z,6.67
2017-08-06T09:46:51.717Z,6.15
2017-08-06T09:49:19.802Z,6.00
2017-08-06T09:51:47.390Z,5.10
2017-08-06T09:54:15.735Z,4.35
2017-08-06T09:56:44.826Z,4.60
2017-08-06T09:59:12.377Z,4.57
2017-08-06T10:01:39.930Z,4.65
2017-08-06T10:04:07.617Z,4.10
2017-08-06T10:06:35.578Z,4.40
2017-08-06T10:09:03.126Z,4.20
2017-08-06T10:11:30.925Z,4.55
2017-08-06T10:14:00.318Z,4.10
2017-08-06T10:16:27.886Z,4.50
2017-08-06T10:18:55.465Z,4.45
2017-08-06T10:21:23.066Z,4.55
2017-08-06T10:23:50.682Z,4.18
2017-08-06T10:26:18.237Z,4.05
2017-08-06T10:28:45.961Z,3.72
2017-08-06T10:31:13.535Z,3.75
2017-08-06T10:33:41.151Z,3.72
2017-08-06T10:36:08.821Z,3.65
2017-08-06T10:38:36.426Z,3.90
2017-08-06T10:41:03.992Z,3.60
2017-08-06T10:43:31.585Z,3.62
2017-08-06T10:45:59.280Z,3.60
2017-08-06T10:48:26.833Z,3.20
2017-08-06T10:50:54.802Z,3.93
2017-08-06T10:53:22.365Z,3.50
2017-08-06T10:55:50.945Z,3.10
2017-08-06T10:58:18.554Z,3.87
2017-08-06T11:00:46.110Z,3.30
2017-08-06T11:03:17.592Z,2.80
2017-08-06T11:05:45.902Z,3.40
2017-08-06T11:08:13.799Z,3.87
2017-08-06T11:10:41.658Z,3.60
2017-08-06T11:13:09.209Z,2.60
2017-08-06T11:15:36.806Z,2.77
2017-08-06T11:18:06.299Z,2.80
2017-08-06T11:20:33.858Z,2.40
2017-08-06T11:23:01.413Z,1.93
2017-08-06T11:25:29.009Z,2.30
2017-08-06T11:27:56.598Z,2.27
2017-08-06T11:30:24.199Z,2.50
2017-08-06T11:32:51.747Z,2.47
2017-08-06T11:35:19.460Z,2.30
2017-08-06T11:37:47.126Z,2.23
2017-08-06T11:40:14.790Z,2.30
2017-08-06T11:42:46.087Z,2.23
2017-08-06T11:45:13.638Z,3.10
2017-08-06T11:47:41.337Z,2.63
2017-08-06T11:50:08.952Z,2.67
2017-08-06T11:52:36.881Z,2.97
2017-08-06T11:55:05.192Z,2.50
2017-08-06T11:57:32.758Z,2.70
2017-08-06T12:00:00.849Z,2.60
2017-08-06T12:02:28.401Z,2.30
2017-08-06T12:04:55.971Z,3.07
2017-08-06T12:07:23.702Z,2.90
2017-08-06T12:09:51.606Z,2.90
2017-08-06T12:12:19.164Z,2.07
2017-08-06T12:14:46.765Z,2.00
2017-08-06T12:17:16.843Z,2.23
2017-08-06T12:19:44.701Z,2.20
2017-08-06T12:22:12.269Z,2.33
2017-08-06T12:24:39.830Z,2.30
2017-08-06T12:27:07.897Z,2.20
2017-08-06T12:29:35.463Z,2.00
2017-08-06T12:32:03.019Z,2.27
2017-08-06T12:34:30.629Z,1.97
2017-08-06T12:36:58.989Z,2.40
2017-08-06T12:39:27.320Z,2.60
2017-08-06T12:41:55.310Z,2.10
2017-08-06T12:44:22.866Z,2.20
2017-08-06T12:46:50.417Z,2.80
2017-08-06T12:49:18.155Z,2.43
2017-08-06T12:51:45.749Z,2.57
2017-08-06T12:54:13.297Z,2.33
2017-08-06T12:56:40.885Z,2.30
2017-08-06T12:59:08.448Z,2.40
2017-08-06T13:01:36.691Z,2.17
2017-08-06T13:04:04.259Z,2.50
2017-08-06T13:06:32.013Z,2.67
2017-08-06T13:08:59.567Z,2.20
2017-08-06T13:11:27.569Z,2.40
2017-08-06T13:13:55.161Z,2.50
2017-08-06T13:16:23.465Z,2.50
2017-08-06T13:18:51.024Z,2.40
2017-08-06T13:21:18.632Z,2.30
2017-08-06T13:23:46.304Z,2.80
2017-08-06T13:26:13.853Z,2.53
2017-08-06T13:28:41.653Z,2.47
2017-08-06T13:31:09.215Z,2.30
2017-08-06T13:33:38.054Z,2.40
2017-08-06T13:36:05.618Z,2.20
2017-08-06T13:38:33.165Z,2.50
2017-08-06T13:41:00.773Z,2.20
2017-08-06T13:43:28.341Z,2.30
2017-08-06T13:45:56.662Z,2.10
2017-08-06T13:48:24.260Z,2.40
2017-08-06T13:50:51.813Z,1.97
2017-08-06T13:53:19.769Z,2.03
2017-08-06T13:55:47.321Z,2.10
2017-08-06T13:58:14.919Z,1.93
2017-08-06T14:00:42.496Z,2.30
2017-08-06T14:03:10.102Z,2.67
2017-08-06T14:05:37.661Z,2.20
2017-08-06T14:08:05.395Z,2.50
2017-08-06T14:10:33.354Z,2.33
2017-08-06T14:13:01.699Z,2.30
2017-08-06T14:15:29.233Z,2.60
2017-08-06T14:17:56.839Z,2.33
2017-08-06T14:20:25.269Z,2.20
2017-08-06T14:22:52.844Z,2.30
2017-08-06T14:25:20.378Z,2.30
2017-08-06T14:27:48.037Z,2.03
2017-08-06T14:30:15.573Z,2.10
2017-08-06T14:32:43.233Z,2.00
2017-08-06T14:35:10.832Z,2.10
2017-08-06T14:37:38.377Z,1.90
2017-08-06T14:40:05.974Z,1.83
2017-08-06T14:42:33.514Z,2.10
2017-08-06T14:45:01.702Z,1.70
2017-08-06T14:47:29.251Z,2.10
2017-08-06T14:49:56.803Z,2.10
2017-08-06T14:52:24.428Z,1.87
2017-08-06T14:54:52.773Z,1.80
2017-08-06T14:57:20.310Z,1.60
2017-08-06T14:59:48.145Z,1.80
2017-08-06T15:02:15.698Z,1.80
2017-08-06T15:04:43.252Z,1.80
2017-08-06T15:07:11.085Z,1.77
2017-08-06T15:09:38.683Z,1.70
2017-08-06T15:12:06.609Z,1.83
2017-08-06T15:14:34.151Z,1.60
2017-08-06T15:17:01.708Z,1.80
2017-08-06T15:19:29.593Z,1.87
2017-08-06T15:21:57.644Z,1.80
2017-08-06T15:24:26.012Z,2.00
2017-08-06T15:26:54.036Z,1.90
2017-08-06T15:29:22.713Z,2.17
2017-08-06T15:31:50.769Z,1.80
2017-08-06T15:34:19.006Z,2.20
2017-08-06T15:36:46.549Z,1.90
2017-08-06T15:39:16.440Z,2.00
2017-08-06T15:41:44.532Z,1.90
2017-08-06T15:44:13.799Z,2.17
2017-08-06T15:46:42.519Z,2.13
2017-08-06T15:49:11.017Z,2.90
2017-08-06T15:51:39.406Z,3.10
2017-08-06T15:54:08.415Z,4.03
2017-08-06T15:56:36.927Z,2.10
2017-08-06T15:59:05.382Z,2.40
2017-08-06T16:01:33.872Z,2.80
2017-08-06T16:04:02.017Z,2.97
2017-08-06T16:06:29.929Z,3.40
2017-08-06T16:08:57.479Z,2.67
2017-08-06T16:11:25.264Z,2.10
2017-08-06T16:13:52.846Z,2.50
2017-08-06T16:16:21.268Z,3.03
2017-08-06T16:18:50.186Z,2.60
2017-08-06T16:21:17.743Z,2.20
2017-08-06T16:23:46.134Z,2.43
2017-08-06T16:26:13.666Z,2.40
2017-08-06T16:28:41.219Z,2.20
2017-08-06T16:31:08.814Z,2.87
2017-08-06T16:33:38.310Z,2.23
2017-08-06T16:36:06.657Z,2.43
2017-08-06T16:38:34.301Z,2.50
2017-08-06T16:41:01.847Z,2.53
2017-08-06T16:43:29.590Z,2.20
2017-08-06T16:45:57.135Z,2.17
2017-08-06T16:48:24.724Z,2.67
2017-08-06T16:50:53.038Z,2.70
2017-08-06T16:53:20.770Z,2.43
2017-08-06T16:55:48.321Z,2.87
2017-08-06T16:58:15.881Z,2.40
2017-08-06T17:00:44.570Z,2.30
2017-08-06T17:03:14.156Z,2.50
2017-08-06T17:05:42.087Z,2.60
2017-08-06T17:08:09.668Z,2.57
2017-08-06T17:10:38.227Z,2.60
2017-08-06T17:13:07.150Z,3.17
2017-08-06T17:15:35.974Z,2.73
2017-08-06T17:18:05.234Z,2.80
2017-08-06T17:20:34.451Z,2.70
2017-08-06T17:23:03.493Z,2.67
2017-08-06T17:25:32.336Z,2.80
2017-08-06T17:28:00.341Z,2.67
2017-08-06T17:30:29.230Z,3.20
2017-08-06T17:32:58.334Z,2.97
2017-08-06T17:35:26.630Z,2.80
2017-08-06T17:37:54.777Z,3.47
2017-08-06T17:40:22.316Z,3.20
2017-08-06T17:42:50.993Z,3.30
2017-08-06T17:45:19.649Z,2.93
2017-08-06T17:47:48.270Z,3.53
2017-08-06T17:50:16.988Z,3.10
2017-08-06T17:52:44.538Z,3.10
2017-08-06T17:55:12.112Z,3.47
2017-08-06T17:57:39.653Z,3.93
2017-08-06T18:00:11.786Z,3.63
2017-08-06T18:02:39.318Z,3.87
2017-08-06T18:05:06.908Z,3.10
2017-08-06T18:07:34.450Z,3.00
2017-08-06T18:10:02.812Z,3.70
2017-08-06T18:12:30.557Z,3.40
2017-08-06T18:14:58.337Z,3.70
2017-08-06T18:17:30.142Z,3.37
2017-08-06T18:19:57.676Z,3.83
2017-08-06T18:22:25.260Z,3.67
2017-08-06T18:24:52.806Z,3.50
2017-08-06T18:27:20.386Z,3.50
2017-08-06T18:29:47.958Z,3.27
2017-08-06T18:32:15.992Z,3.40
2017-08-06T18:34:43.549Z,2.70
2017-08-06T18:37:11.107Z,3.20
2017-08-06T18:39:38.705Z,3.10
2017-08-06T18:42:06.310Z,3.40
2017-08-06T18:44:33.872Z,3.58
2017-08-06T18:47:01.479Z,3.30
2017-08-06T18:49:29.242Z,3.30
2017-08-06T18:51:57.045Z,3.53
2017-08-06T18:54:24.615Z,3.47
2017-08-06T18:56:52.174Z,3.62
2017-08-06T18:59:19.763Z,3.17
2017-08-06T19:01:47.977Z,3.50
2017-08-06T19:04:15.578Z,3.47
2017-08-06T19:06:43.122Z,3.42
2017-08-06T19:09:11.380Z,3.60
2017-08-06T19:11:42.666Z,3.65
2017-08-06T19:14:10.206Z,3.50
2017-08-06T19:16:38.283Z,3.70
2017-08-06T19:19:05.833Z,3.70
2017-08-06T19:21:34.431Z,3.87
2017-08-06T19:24:03.306Z,3.83
2017-08-06T19:26:30.883Z,4.30
2017-08-06T19:28:59.034Z,4.10
2017-08-06T19:31:27.358Z,4.07
2017-08-06T19:33:54.938Z,4.20
2017-08-06T19:36:22.534Z,4.03
2017-08-06T19:38:50.136Z,3.97
2017-08-06T19:41:17.690Z,4.60
2017-08-06T19:43:45.457Z,4.47
2017-08-06T19:46:13.014Z,4.43
2017-08-06T19:48:40.561Z,4.57
2017-08-06T19:51:08.157Z,4.57
2017-08-06T19:53:35.710Z,5.05
2017-08-06T19:56:03.307Z,4.80
2017-08-06T19:58:30.845Z,4.68
2017-08-06T20:00:59.688Z,5.20
2017-08-06T20:03:27.606Z,4.60
2017-08-06T20:05:55.148Z,4.97
2017-08-06T20:08:22.686Z,5.32
2017-08-06T20:10:50.277Z,5.10
2017-08-06T20:13:21.693Z,5.40
2017-08-06T20:15:49.236Z,5.03
2017-08-06T20:18:17.644Z,5.37
2017-08-06T20:20:45.172Z,6.93
2017-08-06T20:23:13.526Z,5.28
2017-08-06T20:25:41.070Z,4.97
2017-08-06T20:28:09.076Z,5.10
2017-08-06T20:30:37.381Z,5.30
2017-08-06T20:33:04.919Z,5.40
2017-08-06T20:35:33.562Z,5.07
2017-08-06T20:38:01.129Z,5.07
2017-08-06T20:40:28.694Z,5.70
2017-08-06T20:42:56.274Z,5.50
2017-08-06T20:45:28.573Z,4.90
2017-08-06T20:47:56.178Z,5.32
2017-08-06T20:50:23.720Z,5.10
2017-08-06T20:52:51.590Z,5.53
2017-08-06T20:55:19.177Z,5.90
2017-08-06T20:57:46.726Z,5.75
2017-08-06T21:00:14.380Z,5.28
2017-08-06T21:02:41.922Z,5.57
2017-08-06T21:05:09.464Z,5.80
2017-08-06T21:07:37.054Z,5.53
2017-08-06T21:10:05.122Z,5.30
2017-08-06T21:12:32.827Z,5.60
2017-08-06T21:15:00.380Z,5.80
2017-08-06T21:17:29.989Z,6.10
2017-08-06T21:19:57.574Z,5.65
2017-08-06T21:22:25.904Z,5.55
2017-08-06T21:24:53.885Z,5.45
2017-08-06T21:27:21.445Z,5.95
2017-08-06T21:29:49.006Z,6.20
2017-08-06T21:32:16.723Z,5.90
2017-08-06T21:34:44.267Z,5.37
2017-08-06T21:37:12.644Z,5.70
2017-08-06T21:39:40.960Z,5.80
2017-08-06T21:42:08.869Z,5.65
2017-08-06T21:44:36.409Z,5.90
2017-08-06T21:47:03.955Z,5.93
2017-08-06T21:49:31.747Z,6.25
2017-08-06T21:51:59.694Z,6.20
2017-08-06T21:54:30.028Z,5.90
2017-08-06T21:56:59.386Z,6.05
2017-08-06T21:59:27.244Z,6.40
2017-08-06T22:01:56.932Z,5.93
2017-08-06T22:04:29.485Z,6.05
2017-08-06T22:06:57.997Z,6.65
2017-08-06T22:09:27.051Z,7.00
2017-08-06T22:11:58.420Z,7.05
2017-08-06T22:14:28.720Z,6.68
2017-08-06T22:16:57.774Z,6.87
2017-08-06T22:19:26.636Z,6.10
2017-08-06T22:21:58.414Z,6.60
2017-08-06T22:24:29.037Z,6.80
2017-08-06T22:26:56.670Z,6.28
2017-08-06T22:29:24.226Z,6.50
2017-08-06T22:31:51.804Z,6.47
2017-08-06T22:34:19.382Z,6.60
2017-08-06T22:36:47.804Z,6.82
2017-08-06T22:39:15.359Z,6.53
2017-08-06T22:41:43.477Z,7.05
2017-08-06T22:44:11.021Z,7.12
2017-08-06T22:46:38.570Z,6.18
2017-08-06T22:49:06.460Z,6.60
2017-08-06T22:51:34.006Z,7.30
2017-08-06T22:54:01.554Z,6.80
2017-08-06T22:56:29.646Z,6.85
2017-08-06T22:58:57.199Z,7.53
2017-08-06T23:01:24.747Z,7.35
2017-08-06T23:03:52.333Z,6.90
2017-08-06T23:06:19.888Z,6.78
2017-08-06T23:08:47.759Z,6.60
2017-08-06T23:11:15.678Z,7.25
2017-08-06T23:13:43.224Z,7.10
2017-08-06T23:16:10.882Z,6.60
2017-08-06T23:18:38.444Z,6.93
2017-08-06T23:21:06.802Z,7.18
2017-08-06T23:23:34.360Z,7.20
2017-08-06T23:26:01.947Z,6.97
2017-08-06T23:28:29.544Z,7.28
2017-08-06T23:30:57.121Z,7.80
2017-08-06T23:33:24.991Z,7.20
2017-08-06T23:35:52.542Z,7.62
2017-08-06T23:38:20.108Z,7.20
2017-08-06T23:40:48.398Z,7.35
2017-08-06T23:43:15.962Z,7.20
2017-08-06T23:45:43.521Z,7.87
2017-08-06T23:48:11.170Z,7.05
2017-08-06T23:50:38.923Z,7.25
2017-08-06T23:53:06.517Z,7.05
2017-08-06T23:55:34.063Z,7.15
2017-08-06T23:58:01.658Z,7.53
